Plan B — ZGCC2 — position and weather

sailwx.info

Track history (hours):
 
Tides and Currents Weather Stations Pressure Air Temp Water Temp Dewpoint Dewpoint Depression Visibility Wind Speed Wind Dir Waves Ship Positions

Plan B

Last reported at 2016-Jul-24 02:11 UTC. Time now 2016-Jul-28 20:16 UTC.
Position N 40°10' E 023°32'.

Length 73 m; draft 3.6 m.

Type: Pleasure craft. MMSI: 319618000.

Date/timePositionNaut miles runAvg speedWind from/ knotsBaromVisibWave heightAir tempDewpointWater temp
2016-Jul-24 02:11N 40°10' E 023°32'711.9
2016-Jul-24 01:33N 40°05' E 023°38'1412.1
2016-Jul-24 00:26N 39°54' E 023°49'121 4.4
2016-Jul-22 21:06N 37°59' E 024°38'815.3
2016-Jul-22 20:34N 37°51' E 024°33'1515.1
2016-Jul-22 19:33N 37°42' E 024°18'1211.5
2016-Jul-22 18:31N 37°37' E 024°04'6 0.4
2016-Jul-22 04:32N 37°38' E 023°56'1212.9
2016-Jul-22 03:33N 37°48' E 023°47'0 0.1
2016-Jul-22 02:33N 37°48' E 023°47'0 0.0
2016-Jul-22 01:33N 37°48' E 023°47'0 0.0
2016-Jul-22 00:33N 37°48' E 023°47'0 0.0
2016-Jul-21 23:33N 37°48' E 023°47'0 0.0
2016-Jul-21 22:33N 37°48' E 023°47'0 0.0
2016-Jul-21 21:33N 37°48' E 023°47'0 0.0
2016-Jul-21 20:33N 37°48' E 023°47'0 0.0
2016-Jul-21 19:33N 37°48' E 023°47'0 0.0
2016-Jul-21 18:33N 37°48' E 023°47'0 0.0
2016-Jul-21 17:30N 37°48' E 023°47'0 0.0
2016-Jul-21 16:33N 37°48' E 023°47'0 0.0
2016-Jul-21 15:33N 37°48' E 023°47'0 0.0
2016-Jul-21 14:33N 37°48' E 023°47'0 0.0
2016-Jul-21 13:33N 37°48' E 023°47'0 0.0
2016-Jul-21 12:33N 37°48' E 023°47'0 0.0
2016-Jul-21 11:33N 37°48' E 023°47'0 0.0
2016-Jul-21 10:33N 37°48' E 023°47'0 0.0
2016-Jul-21 09:33N 37°48' E 023°47'0 0.1
2016-Jul-21 08:33N 37°48' E 023°47'1313.1
2016-Jul-21 07:34N 37°49' E 023°30'1515.4
2016-Jul-21 06:33N 37°53' E 023°11'37 8.7
2016-Jul-21 02:19N 38°11' E 022°31'911.8
2016-Jul-21 01:33N 38°14' E 022°20'4611.6
2016-Jul-20 21:34N 38°15' E 021°21'24 0.6
2016-Jul-19 03:32N 38°06' E 020°53'  
2016-Jul-14 18:16N 38°02' E 020°30'8 9.1
2016-Jul-14 17:23N 37°56' E 020°37'  
Track history (hours):
 
Tides and Currents Weather Stations Pressure Air Temp Water Temp Dewpoint Dewpoint Depression Visibility Wind Speed Wind Dir Waves Ship Positions

Plan B

Last reported at 2016-Jul-24 02:11 UTC. Time now 2016-Jul-28 20:16 UTC.
Position N 40°10' E 023°32'.

Length 73 m; draft 3.6 m.

Type: Pleasure craft. MMSI: 319618000.

Date/timePositionNaut miles runAvg speedWind from/ knotsBaromVisibWave heightAir tempDewpointWater temp
2016-Jul-24 02:11N 40°10' E 023°32'711.9
2016-Jul-24 01:33N 40°05' E 023°38'1412.1
2016-Jul-24 00:26N 39°54' E 023°49'121 4.4
2016-Jul-22 21:06N 37°59' E 024°38'815.3
2016-Jul-22 20:34N 37°51' E 024°33'1515.1
2016-Jul-22 19:33N 37°42' E 024°18'1211.5
2016-Jul-22 18:31N 37°37' E 024°04'6 0.4
2016-Jul-22 04:32N 37°38' E 023°56'1212.9
2016-Jul-22 03:33N 37°48' E 023°47'0 0.1
2016-Jul-22 02:33N 37°48' E 023°47'0 0.0
2016-Jul-22 01:33N 37°48' E 023°47'0 0.0
2016-Jul-22 00:33N 37°48' E 023°47'0 0.0
2016-Jul-21 23:33N 37°48' E 023°47'0 0.0
2016-Jul-21 22:33N 37°48' E 023°47'0 0.0
2016-Jul-21 21:33N 37°48' E 023°47'0 0.0
2016-Jul-21 20:33N 37°48' E 023°47'0 0.0
2016-Jul-21 19:33N 37°48' E 023°47'0 0.0
2016-Jul-21 18:33N 37°48' E 023°47'0 0.0
2016-Jul-21 17:30N 37°48' E 023°47'0 0.0
2016-Jul-21 16:33N 37°48' E 023°47'0 0.0
2016-Jul-21 15:33N 37°48' E 023°47'0 0.0
2016-Jul-21 14:33N 37°48' E 023°47'0 0.0
2016-Jul-21 13:33N 37°48' E 023°47'0 0.0
2016-Jul-21 12:33N 37°48' E 023°47'0 0.0
2016-Jul-21 11:33N 37°48' E 023°47'0 0.0
2016-Jul-21 10:33N 37°48' E 023°47'0 0.0
2016-Jul-21 09:33N 37°48' E 023°47'0 0.1
2016-Jul-21 08:33N 37°48' E 023°47'1313.1
2016-Jul-21 07:34N 37°49' E 023°30'1515.4
2016-Jul-21 06:33N 37°53' E 023°11'37 8.7
2016-Jul-21 02:19N 38°11' E 022°31'911.8
2016-Jul-21 01:33N 38°14' E 022°20'4611.6
2016-Jul-20 21:34N 38°15' E 021°21'24 0.6
2016-Jul-19 03:32N 38°06' E 020°53'  
2016-Jul-14 18:16N 38°02' E 020°30'8 9.1
2016-Jul-14 17:23N 37°56' E 020°37'  

Dump ship's entire track history